Time;durP1;ratioP1;P1;durP2;ratioP2;P2;SDS_P1;SDS_P2;PMS_P1;PMS_P2;Temp;Humidity;BMP_temperature;BMP_pressure;BME280_temperature;BME280_humidity;BME280_pressure;Samples;Min_cycle;Max_cycle;Signal;HPM_P1;HPM_P2
2023/12/16 00:00:30;;;;;;;17.10;2.73;;;;;;;-145.18;100.00;46736.56;5088517;28;20480;-71
2023/12/16 00:02:55;;;;;;;10.83;2.37;;;;;;;-145.18;100.00;46736.56;5077858;28;20025;-72
2023/12/16 00:05:22;;;;;;;9.53;2.50;;;;;;;-145.18;100.00;46738.53;5088607;28;20112;-71
2023/12/16 00:07:47;;;;;;;19.50;2.93;;;;;;;-145.18;100.00;46734.63;5085374;28;20040;-71
2023/12/16 00:10:13;;;;;;;16.17;2.37;;;;;;;-145.18;100.00;46740.47;5069913;28;20273;-71
2023/12/16 00:12:38;;;;;;;17.07;2.63;;;;;;;-145.18;100.00;46744.38;5088122;28;20028;-71
2023/12/16 00:15:04;;;;;;;19.03;2.87;;;;;;;-145.18;100.00;46740.47;5084090;28;20056;-71
2023/12/16 00:17:30;;;;;;;15.30;2.93;;;;;;;-145.18;100.00;46744.38;5083449;28;20488;-71
2023/12/16 00:19:56;;;;;;;15.47;2.87;;;;;;;-145.18;100.00;46740.47;5088270;28;20289;-71
2023/12/16 00:22:21;;;;;;;20.43;2.93;;;;;;;-145.18;100.00;46740.47;5083530;28;20034;-71
2023/12/16 00:24:46;;;;;;;15.47;2.53;;;;;;;-145.18;100.00;46736.56;5087727;28;20541;-71
2023/12/16 00:27:12;;;;;;;16.17;2.93;;;;;;;-145.18;100.00;46744.38;5081799;28;20565;-71
2023/12/16 00:29:37;;;;;;;12.97;2.80;;;;;;;-145.18;100.00;46742.44;5086379;28;20028;-71
2023/12/16 00:32:03;;;;;;;10.83;2.47;;;;;;;-145.18;100.00;46744.38;5082382;28;20135;-71
2023/12/16 00:34:29;;;;;;;14.23;4.40;;;;;;;-145.18;100.00;46742.44;5083020;28;20033;-71
2023/12/16 00:36:55;;;;;;;10.23;2.53;;;;;;;-145.18;100.00;46738.53;5091214;28;20061;-72
2023/12/16 00:39:20;;;;;;;12.60;2.40;;;;;;;-145.18;100.00;46734.63;5092118;28;20336;-71
2023/12/16 00:41:46;;;;;;;18.17;2.93;;;;;;;-145.18;100.00;46736.56;5089979;28;20185;-70
2023/12/16 00:44:12;;;;;;;16.57;2.23;;;;;;;-145.18;100.00;46722.91;5085221;28;20040;-71
2023/12/16 00:46:37;;;;;;;10.97;2.00;;;;;;;-145.18;100.00;46724.84;5090686;28;20283;-71
2023/12/16 00:49:03;;;;;;;14.73;2.43;;;;;;;-145.18;100.00;46726.81;5085072;28;20028;-71
2023/12/16 00:51:28;;;;;;;9.97;2.50;;;;;;;-145.18;100.00;46724.84;5089043;28;20516;-70
2023/12/16 00:53:54;;;;;;;9.57;1.83;;;;;;;-145.18;100.00;46717.03;5092559;28;20146;-70
2023/12/16 00:56:19;;;;;;;9.93;2.30;;;;;;;-145.18;100.00;46722.91;5084030;28;20399;-70
2023/12/16 00:58:44;;;;;;;14.77;3.13;;;;;;;-145.18;100.00;46711.19;5085706;28;20028;-70
2023/12/16 01:01:14;;;;;;;15.83;2.50;;;;;;;-145.18;100.00;46717.03;5079457;28;20074;-71
2023/12/16 01:03:40;;;;;;;14.63;2.70;;;;;;;-145.18;100.00;46724.84;5086210;28;20386;-70
2023/12/16 01:06:06;;;;;;;8.40;2.37;;;;;;;-145.18;100.00;46719.00;5086834;28;20749;-70
2023/12/16 01:08:33;;;;;;;7.70;2.50;;;;;;;-145.18;100.00;46722.91;5087726;28;20312;-71
2023/12/16 01:10:59;;;;;;;16.40;3.13;;;;;;;-145.18;100.00;46724.84;5083186;28;20107;-70
2023/12/16 01:13:24;;;;;;;12.27;2.60;;;;;;;-145.18;100.00;46726.81;5089193;28;20314;-71
2023/12/16 01:15:50;;;;;;;9.10;2.33;;;;;;;-145.18;100.00;46724.84;5084574;28;20261;-71
2023/12/16 01:18:16;;;;;;;15.93;2.73;;;;;;;-145.18;100.00;46726.81;5084065;28;20048;-71
2023/12/16 01:20:41;;;;;;;12.43;3.20;;;;;;;-145.18;100.00;46722.91;5092785;28;20132;-70
2023/12/16 01:23:07;;;;;;;12.00;3.13;;;;;;;-145.18;100.00;46728.75;5088021;28;20271;-70
2023/12/16 01:25:32;;;;;;;16.43;2.80;;;;;;;-145.18;100.00;46728.75;5082612;28;20075;-70
2023/12/16 01:27:57;;;;;;;13.33;3.27;;;;;;;-145.18;100.00;46734.63;5078548;28;20399;-70
2023/12/16 01:30:24;;;;;;;17.17;3.10;;;;;;;-145.18;100.00;46738.53;5080985;28;20036;-71
2023/12/16 01:32:50;;;;;;;14.93;2.90;;;;;;;-145.18;100.00;46732.66;5074872;28;20032;-70
2023/12/16 01:35:15;;;;;;;11.00;2.70;;;;;;;-145.18;100.00;46742.44;5083430;28;20334;-71
2023/12/16 01:37:41;;;;;;;15.70;3.00;;;;;;;-145.18;100.00;46736.56;5078146;28;20032;-71
2023/12/16 01:40:07;;;;;;;17.33;2.80;;;;;;;-145.18;100.00;46740.47;5091046;28;20032;-71
2023/12/16 01:42:32;;;;;;;10.10;2.73;;;;;;;-145.18;100.00;46740.47;5081152;28;20033;-71
2023/12/16 01:44:58;;;;;;;13.20;3.30;;;;;;;-145.18;100.00;46740.47;5085887;28;20265;-70
2023/12/16 01:47:24;;;;;;;14.83;3.60;;;;;;;-145.18;100.00;46738.53;5080448;28;20077;-71
2023/12/16 01:49:50;;;;;;;15.33;3.27;;;;;;;-145.18;100.00;46744.38;5090115;28;20032;-71
2023/12/16 01:52:16;;;;;;;12.67;3.50;;;;;;;-145.18;100.00;46738.53;5097869;28;20758;-70
2023/12/16 01:54:42;;;;;;;14.87;3.80;;;;;;;-145.18;100.00;46742.44;5057066;28;20097;-72
2023/12/16 01:57:08;;;;;;;21.17;3.90;;;;;;;-145.18;100.00;46740.47;5087813;28;20280;-71
2023/12/16 01:59:33;;;;;;;11.00;3.50;;;;;;;-145.18;100.00;46738.53;5081197;28;20045;-71
2023/12/16 02:01:59;;;;;;;13.67;3.93;;;;;;;-145.18;100.00;46740.47;5075596;28;20040;-71
2023/12/16 02:04:25;;;;;;;11.67;3.43;;;;;;;-145.18;100.00;46740.47;5077525;28;20495;-70
2023/12/16 02:06:50;;;;;;;12.83;4.23;;;;;;;-145.18;100.00;46744.38;5079963;28;20265;-71
2023/12/16 02:09:18;;;;;;;12.10;3.77;;;;;;;-145.18;100.00;46746.34;5076514;28;20047;-71
2023/12/16 02:11:44;;;;;;;12.53;3.70;;;;;;;-145.18;100.00;46736.56;5077426;28;20077;-70
2023/12/16 02:14:09;;;;;;;13.47;3.43;;;;;;;-145.18;100.00;46736.56;5092186;28;20299;-70
2023/12/16 02:16:36;;;;;;;20.20;4.17;;;;;;;-145.18;100.00;46740.47;5073541;28;20032;-70
2023/12/16 02:19:06;;;;;;;13.27;3.77;;;;;;;-145.18;100.00;46734.63;5088486;28;20066;-71
2023/12/16 02:21:31;;;;;;;15.53;3.67;;;;;;;-145.18;100.00;46726.81;5084711;28;20851;-70
2023/12/16 02:23:57;;;;;;;14.30;3.70;;;;;;;-145.18;100.00;46732.66;5072120;28;20261;-71
2023/12/16 02:26:22;;;;;;;11.73;3.83;;;;;;;-145.18;100.00;46728.75;5082151;28;20051;-70
2023/12/16 02:28:47;;;;;;;12.73;3.60;;;;;;;-145.18;100.00;46728.75;5087489;28;20028;-71
2023/12/16 02:31:13;;;;;;;15.13;4.17;;;;;;;-145.18;100.00;46734.63;5073626;28;20044;-71
2023/12/16 02:33:39;;;;;;;13.47;4.00;;;;;;;-145.18;100.00;46734.63;5080816;28;20027;-71
2023/12/16 02:36:05;;;;;;;13.77;3.80;;;;;;;-145.18;100.00;46730.72;5077037;28;20071;-71
2023/12/16 02:38:30;;;;;;;18.50;4.67;;;;;;;-145.18;100.00;46726.81;5082738;28;20055;-71
2023/12/16 02:40:55;;;;;;;15.53;4.00;;;;;;;-145.18;100.00;46734.63;5088787;28;20032;-71
2023/12/16 02:43:21;;;;;;;13.13;4.07;;;;;;;-145.18;100.00;46726.81;5093727;28;20469;-71
2023/12/16 02:45:46;;;;;;;19.23;4.43;;;;;;;-145.18;100.00;46734.63;5080137;28;20103;-71
2023/12/16 02:48:12;;;;;;;17.63;4.27;;;;;;;-145.18;100.00;46728.75;5083874;28;20036;-71
2023/12/16 02:50:37;;;;;;;18.63;4.60;;;;;;;-145.18;100.00;46726.81;5088580;28;20032;-72
2023/12/16 02:53:02;;;;;;;23.00;4.77;;;;;;;-145.18;100.00;46728.75;5073163;28;20036;-71
2023/12/16 02:55:28;;;;;;;15.73;4.30;;;;;;;-145.18;100.00;46732.66;5072290;28;20064;-71
2023/12/16 02:57:53;;;;;;;16.07;4.63;;;;;;;-145.18;100.00;46728.75;5091285;28;20067;-71
2023/12/16 03:00:18;;;;;;;17.17;4.33;;;;;;;-145.18;100.00;46726.81;5079044;28;20064;-71
2023/12/16 03:02:44;;;;;;;17.40;4.67;;;;;;;-145.18;100.00;46728.75;5079767;28;20430;-71
2023/12/16 03:05:09;;;;;;;20.50;5.63;;;;;;;-145.18;100.00;46728.75;5084230;28;20082;-71
2023/12/16 03:07:36;;;;;;;15.03;4.13;;;;;;;-145.18;100.00;46726.81;5077659;28;20042;-71
2023/12/16 03:10:02;;;;;;;25.43;4.87;;;;;;;-145.18;100.00;46726.81;5078954;28;20063;-71
2023/12/16 03:12:27;;;;;;;16.60;4.43;;;;;;;-145.18;100.00;46728.75;5091166;28;20725;-71
2023/12/16 03:14:53;;;;;;;17.33;4.17;;;;;;;-145.18;100.00;46722.91;5085796;28;20377;-70
2023/12/16 03:17:18;;;;;;;23.53;5.67;;;;;;;-145.18;100.00;46720.94;5078469;28;20067;-71
2023/12/16 03:19:43;;;;;;;14.33;4.17;;;;;;;-145.18;100.00;46720.94;5081394;28;20036;-70
2023/12/16 03:22:09;;;;;;;16.77;4.67;;;;;;;-145.18;100.00;46724.84;5073513;28;20082;-70
2023/12/16 03:24:34;;;;;;;15.13;4.80;;;;;;;-145.18;100.00;46726.81;5061536;28;20494;-71
2023/12/16 03:27:00;;;;;;;12.13;5.43;;;;;;;-145.18;100.00;46726.81;5077726;28;20038;-71
2023/12/16 03:29:25;;;;;;;18.17;4.53;;;;;;;-145.18;100.00;46722.91;5078605;28;20492;-70
2023/12/16 03:31:51;;;;;;;18.00;4.97;;;;;;;-145.18;100.00;46722.91;5078822;28;20031;-70
2023/12/16 03:34:16;;;;;;;11.43;4.20;;;;;;;-145.18;100.00;46719.00;5079336;28;20032;-71
2023/12/16 03:36:42;;;;;;;17.77;4.50;;;;;;;-145.18;100.00;46720.94;5072339;28;20028;-71
2023/12/16 03:39:07;;;;;;;19.73;5.97;;;;;;;-145.18;100.00;46722.91;5073506;28;20119;-71
2023/12/16 03:41:34;;;;;;;12.53;4.37;;;;;;;-145.18;100.00;46720.94;5083518;28;20086;-71
2023/12/16 03:44:00;;;;;;;16.03;4.53;;;;;;;-145.18;100.00;46715.09;5071221;28;20032;-71
2023/12/16 03:46:26;;;;;;;18.63;4.73;;;;;;;-145.18;100.00;46720.94;5073721;28;20718;-70
2023/12/16 03:48:52;;;;;;;21.80;5.93;;;;;;;-145.18;100.00;46717.03;5084272;28;20269;-70
2023/12/16 03:51:20;;;;;;;15.27;4.83;;;;;;;-145.18;100.00;46719.00;5078940;28;20263;-71
2023/12/16 03:53:45;;;;;;;13.27;4.37;;;;;;;-145.18;100.00;46722.91;5086516;28;20264;-70
2023/12/16 03:56:11;;;;;;;16.43;4.90;;;;;;;-145.18;100.00;46722.91;5073524;28;20629;-71
2023/12/16 03:58:36;;;;;;;18.00;4.70;;;;;;;-145.18;100.00;46719.00;5075100;28;20036;-71
2023/12/16 04:01:02;;;;;;;19.97;4.77;;;;;;;-145.18;100.00;46717.03;5105562;28;20028;-70
2023/12/16 04:03:27;;;;;;;18.80;4.33;;;;;;;-145.18;100.00;46717.03;5080253;28;20562;-70
2023/12/16 04:05:52;;;;;;;14.33;4.63;;;;;;;-145.18;100.00;46719.00;5071657;28;20032;-71
2023/12/16 04:08:18;;;;;;;22.87;5.93;;;;;;;-145.18;100.00;46717.03;5081595;28;20035;-71
2023/12/16 04:10:43;;;;;;;17.13;3.80;;;;;;;-145.18;100.00;46720.94;5078459;28;20050;-71
2023/12/16 04:13:08;;;;;;;20.43;5.87;;;;;;;-145.18;100.00;46720.94;5091382;28;20499;-70
2023/12/16 04:15:34;;;;;;;23.77;5.80;;;;;;;-145.18;100.00;46717.03;5073939;28;20036;-70
2023/12/16 04:18:00;;;;;;;22.90;4.70;;;;;;;-145.18;100.00;46719.00;5080429;28;20614;-71
2023/12/16 04:20:26;;;;;;;24.30;5.10;;;;;;;-145.18;100.00;46719.00;5090188;28;20111;-70
2023/12/16 04:22:51;;;;;;;19.47;4.70;;;;;;;-145.18;100.00;46717.03;5080438;28;20032;-70
2023/12/16 04:25:17;;;;;;;25.03;4.80;;;;;;;-145.18;100.00;46715.09;5074979;28;20264;-71
2023/12/16 04:27:42;;;;;;;18.17;4.40;;;;;;;-145.18;100.00;46717.03;5079721;28;20032;-70
2023/12/16 04:30:08;;;;;;;22.93;6.00;;;;;;;-145.18;100.00;46717.03;5079633;28;20028;-71
2023/12/16 04:32:33;;;;;;;25.27;5.73;;;;;;;-145.18;100.00;46720.94;5072167;28;20054;-70
2023/12/16 04:34:58;;;;;;;23.53;5.20;;;;;;;-145.18;100.00;46713.13;5071852;28;20043;-70
2023/12/16 04:37:24;;;;;;;18.60;4.40;;;;;;;-145.18;100.00;46713.13;5084552;28;20040;-71
2023/12/16 04:39:50;;;;;;;22.50;6.17;;;;;;;-145.18;100.00;46715.09;5071635;28;20032;-71
2023/12/16 04:42:15;;;;;;;19.73;4.97;;;;;;;-145.18;100.00;46719.00;5082144;28;20503;-71
2023/12/16 04:44:41;;;;;;;24.07;4.47;;;;;;;-145.18;100.00;46717.03;5080803;28;20036;-71
2023/12/16 04:47:07;;;;;;;18.97;4.33;;;;;;;-145.18;100.00;46715.09;5073504;28;20541;-71
2023/12/16 04:49:32;;;;;;;14.47;4.07;;;;;;;-145.18;100.00;46709.22;5070501;28;20036;-70
2023/12/16 04:51:58;;;;;;;16.23;3.73;;;;;;;-145.18;100.00;46717.03;5073908;28;20257;-71
2023/12/16 04:54:23;;;;;;;15.83;4.97;;;;;;;-145.18;100.00;46717.03;5070309;28;20028;-71
2023/12/16 04:56:49;;;;;;;23.57;4.63;;;;;;;-145.18;100.00;46709.22;5075109;28;20067;-70
2023/12/16 04:59:14;;;;;;;18.03;3.90;;;;;;;-145.18;100.00;46719.00;5082717;28;20036;-70
2023/12/16 05:01:39;;;;;;;26.23;4.77;;;;;;;-145.18;100.00;46705.31;5066473;28;20109;-71
2023/12/16 05:04:05;;;;;;;16.30;4.10;;;;;;;-145.18;100.00;46713.13;5079200;28;20043;-66
2023/12/16 05:06:31;;;;;;;30.77;4.90;;;;;;;-145.18;100.00;46715.09;5073342;28;20040;-70
2023/12/16 05:08:56;;;;;;;24.47;3.80;;;;;;;-145.18;100.00;46713.13;5078963;28;20269;-70
2023/12/16 05:11:23;;;;;;;14.40;3.93;;;;;;;-145.18;100.00;46713.13;5085740;28;20055;-71
2023/12/16 05:13:49;;;;;;;26.30;5.00;;;;;;;-145.18;100.00;46713.13;5084608;28;20032;-71
2023/12/16 05:16:20;;;;;;;18.30;4.40;;;;;;;-145.18;100.00;46715.09;5088248;28;20249;-71
2023/12/16 05:18:46;;;;;;;17.37;4.03;;;;;;;-145.18;100.00;46709.22;5082051;28;20049;-70
2023/12/16 05:21:12;;;;;;;16.67;4.87;;;;;;;-145.18;100.00;46711.19;5088874;28;20276;-71
2023/12/16 05:23:38;;;;;;;19.37;4.73;;;;;;;-145.18;100.00;46707.28;5085045;28;20765;-71
2023/12/16 05:26:03;;;;;;;21.30;4.20;;;;;;;-145.18;100.00;46713.13;5081099;28;20109;-70
2023/12/16 05:28:31;;;;;;;19.50;4.53;;;;;;;-145.18;100.00;46707.28;5089441;28;20319;-71
2023/12/16 05:30:56;;;;;;;28.57;5.73;;;;;;;-145.18;100.00;46709.22;5074650;28;20107;-69
2023/12/16 05:33:21;;;;;;;24.60;4.27;;;;;;;-145.18;100.00;46713.13;5087227;28;20384;-70
2023/12/16 05:35:47;;;;;;;26.43;4.87;;;;;;;-145.18;100.00;46705.31;5093344;28;20028;-70
2023/12/16 05:38:12;;;;;;;17.50;4.40;;;;;;;-145.18;100.00;46707.28;5081020;28;20042;-70
2023/12/16 05:40:37;;;;;;;19.53;5.27;;;;;;;-145.18;100.00;46713.13;5087334;28;20028;-70
2023/12/16 05:43:03;;;;;;;16.10;3.97;;;;;;;-145.18;100.00;46715.09;5090744;28;20400;-71
2023/12/16 05:45:28;;;;;;;20.37;3.90;;;;;;;-145.18;100.00;46715.09;5089391;28;20036;-70
2023/12/16 05:47:53;;;;;;;27.40;4.97;;;;;;;-145.18;100.00;46713.13;5090014;28;20133;-70
2023/12/16 05:50:19;;;;;;;17.93;4.40;;;;;;;-145.18;100.00;46713.13;5074428;28;20043;-71
2023/12/16 05:52:44;;;;;;;18.33;4.10;;;;;;;-145.18;100.00;46711.19;5086207;28;20032;-70
2023/12/16 05:55:10;;;;;;;21.97;4.33;;;;;;;-145.18;100.00;46707.28;5091378;28;20039;-71
2023/12/16 05:57:35;;;;;;;25.50;4.70;;;;;;;-145.18;100.00;46711.19;5077094;28;20054;-71
2023/12/16 06:00:00;;;;;;;17.70;3.73;;;;;;;-145.18;100.00;46707.28;5080457;28;20366;-70
2023/12/16 06:02:26;;;;;;;23.50;5.47;;;;;;;-145.18;100.00;46711.19;5080583;28;20032;-71
2023/12/16 06:04:51;;;;;;;19.67;3.73;;;;;;;-145.18;100.00;46709.22;5092497;28;20082;-70
2023/12/16 06:07:16;;;;;;;21.23;4.10;;;;;;;-145.18;100.00;46711.19;5080711;28;20059;-70
2023/12/16 06:09:42;;;;;;;27.03;5.00;;;;;;;-145.18;100.00;46711.19;5081316;28;20400;-71
2023/12/16 06:12:07;;;;;;;19.73;5.30;;;;;;;-145.18;100.00;46707.28;5082713;28;20032;-70
2023/12/16 06:14:33;;;;;;;23.83;4.23;;;;;;;-145.18;100.00;46709.22;5095412;28;20537;-71
2023/12/16 06:16:58;;;;;;;22.13;4.57;;;;;;;-145.18;100.00;46707.28;5075616;28;20059;-70
2023/12/16 06:19:25;;;;;;;16.83;4.60;;;;;;;-145.18;100.00;46701.41;5102194;28;20052;-70
2023/12/16 06:21:50;;;;;;;17.67;3.33;;;;;;;-145.18;100.00;46709.22;5093820;28;20326;-71
2023/12/16 06:24:15;;;;;;;19.77;4.70;;;;;;;-145.18;100.00;46705.31;5088436;28;20535;-71
2023/12/16 06:26:41;;;;;;;25.03;4.37;;;;;;;-145.18;100.00;46709.22;5086189;28;20028;-70
2023/12/16 06:29:08;;;;;;;25.77;4.93;;;;;;;-145.18;100.00;46711.19;5089043;28;20027;-71
2023/12/16 06:31:34;;;;;;;17.90;4.30;;;;;;;-145.18;100.00;46697.50;5088447;28;20063;-71
2023/12/16 06:33:59;;;;;;;21.00;4.77;;;;;;;-145.18;100.00;46711.19;5079644;28;20278;-71
2023/12/16 06:36:25;;;;;;;21.70;4.40;;;;;;;-145.18;100.00;46713.13;5081958;28;20494;-70
2023/12/16 06:38:50;;;;;;;17.53;4.53;;;;;;;-145.18;100.00;46701.41;5102619;28;20021;-71
2023/12/16 06:41:15;;;;;;;26.33;4.33;;;;;;;-145.18;100.00;46713.13;5084573;28;20503;-71
2023/12/16 06:43:41;;;;;;;22.00;4.63;;;;;;;-145.18;100.00;46709.22;5084904;28;20127;-70
2023/12/16 06:46:07;;;;;;;16.53;4.30;;;;;;;-145.18;100.00;46713.13;5083340;28;20120;-70
2023/12/16 06:48:32;;;;;;;17.90;5.00;;;;;;;-145.18;100.00;46707.28;5077587;28;20029;-71
2023/12/16 06:50:59;;;;;;;19.97;4.80;;;;;;;-145.18;100.00;46709.22;5092083;28;20385;-70
2023/12/16 06:53:25;;;;;;;23.90;5.53;;;;;;;-145.18;100.00;46709.22;5076763;28;20025;-71
2023/12/16 06:55:52;;;;;;;24.97;5.43;;;;;;;-145.18;100.00;46709.22;5087155;28;20272;-71
2023/12/16 06:58:18;;;;;;;25.03;5.47;;;;;;;-145.18;100.00;46713.13;5080646;28;20277;-71
2023/12/16 07:00:44;;;;;;;20.13;5.50;;;;;;;-145.18;100.00;46711.19;5102321;28;20818;-71
2023/12/16 07:03:10;;;;;;;19.07;5.27;;;;;;;-145.18;100.00;46709.22;5084375;28;20028;-71
2023/12/16 07:05:36;;;;;;;19.77;4.60;;;;;;;-145.18;100.00;46711.19;5077956;28;20287;-71
2023/12/16 07:08:01;;;;;;;17.30;5.37;;;;;;;-145.18;100.00;46707.28;5072746;28;20097;-71
2023/12/16 07:10:27;;;;;;;19.70;5.70;;;;;;;-145.18;100.00;46713.13;5088059;28;20050;-71
2023/12/16 07:12:53;;;;;;;20.50;5.17;;;;;;;-145.18;100.00;46711.19;5072520;28;20035;-70
2023/12/16 07:15:19;;;;;;;18.63;4.50;;;;;;;-145.18;100.00;46711.19;5051352;28;20637;-71
2023/12/16 07:17:44;;;;;;;16.90;4.63;;;;;;;-145.18;100.00;46711.19;5075978;28;20036;-71
2023/12/16 07:20:10;;;;;;;25.90;4.77;;;;;;;-145.18;100.00;46707.28;5084959;28;20307;-71
2023/12/16 07:22:35;;;;;;;24.93;5.00;;;;;;;-145.18;100.00;46711.19;5073149;28;20067;-71
2023/12/16 07:25:01;;;;;;;22.07;5.87;;;;;;;-145.18;100.00;46709.22;5082200;28;20035;-71
2023/12/16 07:27:26;;;;;;;21.23;4.77;;;;;;;-145.18;100.00;46701.41;5087395;28;20131;-71
2023/12/16 07:29:52;;;;;;;19.37;4.80;;;;;;;-145.18;100.00;46709.22;5082830;28;20024;-72
2023/12/16 07:32:18;;;;;;;20.73;4.87;;;;;;;-145.18;100.00;46707.28;5079477;28;20035;-71
2023/12/16 07:34:44;;;;;;;25.87;5.17;;;;;;;-145.18;100.00;46709.22;5085369;28;20085;-71
2023/12/16 07:37:10;;;;;;;35.73;6.30;;;;;;;-145.18;100.00;46709.22;5076279;28;20269;-71
2023/12/16 07:39:35;;;;;;;27.60;5.27;;;;;;;-145.18;100.00;46705.31;5086855;28;20395;-70
2023/12/16 07:42:00;;;;;;;26.60;6.00;;;;;;;-145.18;100.00;46711.19;5077411;28;20377;-71
2023/12/16 07:44:28;;;;;;;19.73;5.47;;;;;;;-145.18;100.00;46709.22;5084682;28;20084;-66
2023/12/16 07:46:54;;;;;;;43.23;7.80;;;;;;;-145.18;100.00;46711.19;5071602;28;20081;-65
2023/12/16 07:49:24;;;;;;;15.67;4.87;;;;;;;-145.18;100.00;46707.28;5074973;28;20273;-65
2023/12/16 07:51:50;;;;;;;23.73;4.90;;;;;;;-145.18;100.00;46709.22;5076493;28;20028;-66
2023/12/16 07:54:15;;;;;;;18.23;4.27;;;;;;;-145.18;100.00;46705.31;5085786;28;20268;-65
2023/12/16 07:56:41;;;;;;;17.77;4.67;;;;;;;-145.18;100.00;46697.50;5080742;28;20032;-66
2023/12/16 07:59:07;;;;;;;20.80;5.33;;;;;;;-145.18;100.00;46703.38;5081949;28;20051;-66
2023/12/16 08:01:33;;;;;;;24.60;4.80;;;;;;;-145.18;100.00;46709.22;5079172;28;20037;-66
2023/12/16 08:03:58;;;;;;;17.53;4.40;;;;;;;-145.18;100.00;46709.22;5078949;28;20589;-66
2023/12/16 08:06:24;;;;;;;17.60;4.20;;;;;;;-145.18;100.00;46709.22;5075138;28;20043;-65
2023/12/16 08:08:49;;;;;;;19.10;4.67;;;;;;;-145.18;100.00;46711.19;5083773;28;20070;-66
2023/12/16 08:11:14;;;;;;;18.43;5.37;;;;;;;-145.18;100.00;46709.22;5073091;28;20037;-66
2023/12/16 08:13:40;;;;;;;23.60;5.30;;;;;;;-145.18;100.00;46703.38;5087356;28;20089;-66
2023/12/16 08:16:08;;;;;;;18.03;4.17;;;;;;;-145.18;100.00;46711.19;5083503;28;20041;-66
2023/12/16 08:18:33;;;;;;;16.50;3.93;;;;;;;-145.18;100.00;46713.13;5078010;28;20117;-66
2023/12/16 08:20:59;;;;;;;18.83;5.23;;;;;;;-145.18;100.00;46709.22;5074732;28;20293;-66
2023/12/16 08:23:24;;;;;;;23.70;5.17;;;;;;;-145.18;100.00;46709.22;5068832;28;20040;-65
2023/12/16 08:25:49;;;;;;;26.10;4.57;;;;;;;-145.18;100.00;46711.19;5074654;28;20040;-66
2023/12/16 08:28:16;;;;;;;24.43;4.40;;;;;;;-145.18;100.00;46707.28;5072191;28;20391;-66
2023/12/16 08:30:42;;;;;;;17.60;4.30;;;;;;;-145.18;100.00;46709.22;5074264;28;20036;-66
2023/12/16 08:33:08;;;;;;;18.33;4.57;;;;;;;-145.18;100.00;46713.13;5071209;28;20303;-65
2023/12/16 08:35:34;;;;;;;16.70;4.50;;;;;;;-145.18;100.00;46711.19;5083780;28;20364;-66
2023/12/16 08:38:01;;;;;;;18.03;3.67;;;;;;;-145.18;100.00;46709.22;5082624;28;20030;-66
2023/12/16 08:40:26;;;;;;;26.63;4.70;;;;;;;-145.18;100.00;46705.31;5075857;28;20114;-66
2023/12/16 08:42:52;;;;;;;15.60;4.13;;;;;;;-145.18;100.00;46709.22;5077454;28;20706;-66
2023/12/16 08:45:17;;;;;;;19.43;4.17;;;;;;;-145.18;100.00;46709.22;5080703;28;20044;-66
2023/12/16 08:47:43;;;;;;;16.60;3.13;;;;;;;-145.18;100.00;46711.19;5077943;28;20075;-65
2023/12/16 08:50:08;;;;;;;22.60;4.90;;;;;;;-145.18;100.00;46711.19;5082255;28;20020;-66
2023/12/16 08:52:34;;;;;;;25.93;4.53;;;;;;;-145.18;100.00;46709.22;5077715;28;20035;-66
2023/12/16 08:55:00;;;;;;;26.17;5.10;;;;;;;-145.18;100.00;46707.28;5083314;28;20060;-66
2023/12/16 08:57:27;;;;;;;15.67;3.67;;;;;;;-145.18;100.00;46709.22;5083963;28;20480;-66
2023/12/16 08:59:53;;;;;;;16.60;4.37;;;;;;;-145.18;100.00;46709.22;5075471;28;20380;-66
2023/12/16 09:02:18;;;;;;;22.77;5.57;;;;;;;-145.18;100.00;46707.28;5083610;28;20363;-66
2023/12/16 09:04:44;;;;;;;19.67;4.10;;;;;;;-145.18;100.00;46705.31;5079211;28;20042;-66
2023/12/16 09:07:10;;;;;;;21.33;4.33;;;;;;;-145.18;100.00;46703.38;5090234;28;20028;-66
2023/12/16 09:09:35;;;;;;;18.73;4.07;;;;;;;-145.18;100.00;46703.38;5079796;28;20481;-66
2023/12/16 09:12:00;;;;;;;22.83;4.83;;;;;;;-145.18;100.00;46701.41;5087835;28;20317;-66
2023/12/16 09:14:26;;;;;;;19.67;4.27;;;;;;;-145.18;100.00;46701.41;5075788;28;20047;-66
2023/12/16 09:16:51;;;;;;;22.00;5.13;;;;;;;-145.18;100.00;46703.38;5080595;28;20063;-66
2023/12/16 09:19:17;;;;;;;19.83;4.77;;;;;;;-145.18;100.00;46699.47;5076569;28;20393;-65
2023/12/16 09:21:42;;;;;;;17.93;4.20;;;;;;;-145.18;100.00;46699.47;5082471;28;20119;-66
2023/12/16 09:24:08;;;;;;;28.17;5.30;;;;;;;-145.18;100.00;46697.50;5081115;28;20036;-66
2023/12/16 09:26:34;;;;;;;24.63;5.43;;;;;;;-145.18;100.00;46701.41;5083392;28;20039;-66
2023/12/16 09:29:02;;;;;;;25.87;5.70;;;;;;;-145.18;100.00;46703.38;5086296;28;20103;-67
2023/12/16 09:31:28;;;;;;;21.60;5.60;;;;;;;-145.18;100.00;46695.56;5082041;28;20755;-66
2023/12/16 09:33:53;;;;;;;24.20;6.23;;;;;;;-145.18;100.00;46699.47;5082559;28;20261;-66
2023/12/16 09:36:18;;;;;;;22.07;5.67;;;;;;;-145.18;100.00;46703.38;5085050;28;20111;-66
2023/12/16 09:38:44;;;;;;;26.10;5.60;;;;;;;-145.18;100.00;46697.50;5075980;28;20032;-66
2023/12/16 09:41:18;;;;;;;24.60;7.03;;;;;;;-145.18;100.00;46695.56;5080980;28;20622;-66
2023/12/16 09:43:46;;;;;;;22.47;6.47;;;;;;;-145.18;100.00;46701.41;5077236;28;20036;-66
2023/12/16 09:46:12;;;;;;;22.47;7.30;;;;;;;-145.18;100.00;46701.41;5081435;28;20775;-66
2023/12/16 09:48:37;;;;;;;20.67;6.73;;;;;;;-145.18;100.00;46685.78;5086733;28;20272;-66
2023/12/16 09:51:03;;;;;;;29.97;7.43;;;;;;;-145.18;100.00;46693.59;5079737;28;20043;-66
2023/12/16 09:53:28;;;;;;;33.27;7.07;;;;;;;-145.18;100.00;46691.66;5080732;28;20024;-66
2023/12/16 09:55:54;;;;;;;26.93;7.23;;;;;;;-145.18;100.00;46685.78;5076763;28;20085;-66
2023/12/16 09:58:19;;;;;;;19.63;7.07;;;;;;;-145.18;100.00;46687.75;5102563;28;20034;-66
2023/12/16 10:00:46;;;;;;;24.17;6.83;;;;;;;-145.18;100.00;46691.66;5082294;28;20028;-66
2023/12/16 10:03:16;;;;;;;27.03;7.57;;;;;;;-145.18;100.00;46689.69;5078540;28;20048;-66
2023/12/16 10:05:43;;;;;;;25.10;7.80;;;;;;;-145.18;100.00;46689.69;5081346;28;20360;-66
2023/12/16 10:08:09;;;;;;;30.33;8.57;;;;;;;-145.18;100.00;46687.75;5076312;28;20340;-66
2023/12/16 10:10:34;;;;;;;26.50;9.07;;;;;;;-145.18;100.00;46679.94;5074017;28;20268;-66
2023/12/16 10:13:04;;;;;;;31.80;9.43;;;;;;;-145.18;100.00;46676.03;5078722;28;20054;-66
2023/12/16 10:15:31;;;;;;;31.07;8.07;;;;;;;-145.18;100.00;46691.66;5083959;28;20052;-66
2023/12/16 10:17:59;;;;;;;19.23;8.70;;;;;;;-145.18;100.00;46687.75;5085215;28;20290;-66
2023/12/16 10:20:24;;;;;;;26.10;8.90;;;;;;;-145.18;100.00;46677.97;5074127;28;20377;-66
2023/12/16 10:22:50;;;;;;;30.33;8.50;;;;;;;-145.18;100.00;46685.78;5080700;28;20839;-66
2023/12/16 10:25:17;;;;;;;19.77;7.63;;;;;;;-145.18;100.00;46681.88;5084709;28;20031;-66
2023/12/16 10:27:43;;;;;;;28.17;8.93;;;;;;;-145.18;100.00;46676.03;5076659;28;20121;-66
2023/12/16 10:30:08;;;;;;;25.13;7.83;;;;;;;-145.18;100.00;46683.84;5075069;28;20296;-66
2023/12/16 10:32:40;;;;;;;29.13;8.60;;;;;;;-145.18;100.00;46670.16;5086009;28;20040;-67
2023/12/16 10:35:07;;;;;;;27.87;9.07;;;;;;;-145.18;100.00;46668.22;5079180;28;20028;-66
2023/12/16 10:37:33;;;;;;;32.87;9.27;;;;;;;-145.18;100.00;46664.31;5078239;28;20725;-66
2023/12/16 10:39:58;;;;;;;29.27;9.00;;;;;;;-145.18;100.00;46662.34;5074430;28;20281;-65
2023/12/16 10:42:24;;;;;;;27.23;9.17;;;;;;;-145.18;100.00;46666.25;5073507;28;20040;-66
2023/12/16 10:44:52;;;;;;;29.93;8.53;;;;;;;-145.18;100.00;46674.06;5073212;28;20028;-66
2023/12/16 10:47:18;;;;;;;30.57;9.40;;;;;;;-145.18;100.00;46668.22;5086174;28;20070;-66
2023/12/16 10:49:45;;;;;;;29.67;9.13;;;;;;;-145.18;100.00;46666.25;5073734;28;20821;-66
2023/12/16 10:52:17;;;;;;;20.93;8.03;;;;;;;-145.18;100.00;46664.31;5082873;28;20037;-66
2023/12/16 10:54:55;;;;;;;26.93;9.70;;;;;;;-145.18;100.00;46662.34;5072688;28;20344;-66